ドバイ の空港の天気 - METARとTAF

ドバイ国際空港 ( OMDB / DXB ) - アラブ首長国連邦 ドバイ
飛行場実況気象(Metar)
観測時間09/23 16:00 GST (09/23 12:00 UTC)
風向・風速北北西 6m/s
視程10km以上
天気現象
少しの雲 雲底高度 1370m
気温38℃
湿度27%
気圧1005hPa
METAROMDB 231200Z 33012KT 9999 FEW045 38/16 Q1005 NOSIG
過去の天気等 Google飛行場航空写真 Wunderground天気予報

過去48時間のMETAR

飛行場予報(TAF)
発表時間: 9/23 14:56 GST (9/23 10:56 UTC)
予報対象時間: 23日16時 GST ~ 24日22時 GST
風向・風速北 6m/s
視程10km以上
なし
23日19時 GST ~ 23日21時 GST に徐々に
風向・風速東 3m/s
24日12時 GST ~ 24日14時 GST に徐々に
風向・風速北北西 6m/s
24日19時 GST ~ 24日21時 GST に徐々に
風向・風速東 3m/s
TAF OMDB 231056Z 2312/2418 35012KT CAVOK
BECMG 2315/2317 10005KT
BECMG 2408/2410 34012KT
BECMG 2415/2417 09005KT